Latest Weather Observations for Mount Crawford

IDS60801

Issued at 9:31 am CST Wednesday 20 September 2017 (issued every 30 minutes, with the page automatically refreshed every 10 minutes)

About weather observations | Map of weather stations | Latest weather observations for SA | Other Formats
Station Details ID: 023878 Name: MOUNT CRAWFORD AWS Lat: -34.73 Lon: 138.93 Height: 525.0 m
Data from the previous 72 hours. | See also: Recent months at Mount Crawford
Date/Time
CST
Temp
°C
App
Temp
°C
Dew
Point
°C
Rel
Hum
%
Delta-T
°C
Wind Press
QNH
hPa
Press
MSL
hPa
Rain since
9am
mm
Dir  Spd
km/h
Gust
km/h
Spd
kts
Gust
kts
20/09:30am 13.2 8.5 5.9 61 3.5 NW 20 26 11 14 1019.0 1018.9 0.0
20/09:00am 13.1 9.1 6.5 64 3.2 NNW 17 24 9 13 1019.2 1019.0 0.0
20/08:30am 12.3 7.4 5.0 61 3.5 NNW 20 28 11 15 1019.3 1019.1 0.0
20/08:00am 11.5 5.7 4.3 61 3.3 N 24 33 13 18 1018.7 1018.6 0.0
20/07:30am 11.6 5.4 4.1 60 3.5 N 26 35 14 19 1018.6 1018.4 0.0
20/07:00am 10.9 5.0 3.7 61 3.3 N 24 32 13 17 1018.3 1018.1 0.0
20/06:30am 11.0 5.1 3.8 61 3.3 N 24 33 13 18 1018.7 1018.6 0.0
20/06:00am 10.4 4.9 4.1 65 2.9 N 22 30 12 16 1018.7 1018.6 0.0
20/05:30am 10.4 5.0 4.3 66 2.8 N 22 32 12 17 1018.8 1018.7 0.0
20/05:00am 10.2 4.8 4.6 68 2.6 N 22 33 12 18 1018.8 1018.7 0.0
20/04:30am 10.2 4.8 4.6 68 2.6 N 22 30 12 16 1018.6 1018.4 0.0
20/04:00am 9.8 4.8 4.6 70 2.4 N 20 28 11 15 1018.6 1018.4 0.0
20/03:30am 9.7 4.7 4.7 71 2.3 N 20 26 11 14 1018.7 1018.6 0.0
20/03:00am 9.6 4.2 4.4 70 2.4 N 22 30 12 16 1018.9 1018.8 0.0
20/02:30am 10.1 5.1 4.5 68 2.6 N 20 24 11 13 1019.0 1018.9 0.0
20/02:00am 10.0 5.0 4.8 70 2.4 NNW 20 26 11 14 1019.7 1019.5 0.0
20/01:30am 9.5 4.7 5.7 77 1.8 NNW 20 26 11 14 1020.0 1019.8 0.0
20/01:00am 9.1 4.5 6.4 83 1.3 N 20 24 11 13 1020.2 1020.0 0.0
20/12:30am 8.6 4.5 6.4 86 1.0 N 17 20 9 11 1020.4 1020.3 0.0
20/12:00am 8.8 5.2 6.6 86 1.0 N 15 19 8 10 1020.6 1020.5 0.0
 
Date/Time
CST
Temp
°C
App
Temp
°C
Dew
Point
°C
Rel
Hum
%
Delta-T
°C
Wind Press
QNH
hPa
Press
MSL
hPa
Rain since
9am
mm
Dir  Spd
km/h
Gust
km/h
Spd
kts
Gust
kts
19/11:30pm 8.5 4.8 6.3 86 1.0 N 15 19 8 10 1020.9 1020.8 0.0
19/11:00pm 8.3 4.5 5.9 85 1.1 N 15 17 8 9 1021.3 1021.1 0.0
19/10:30pm 8.3 4.9 6.1 86 1.0 N 13 15 7 8 1021.6 1021.4 0.0
19/10:00pm 8.1 5.0 5.7 85 1.1 NNE 11 13 6 7 1021.9 1021.7 0.0
19/09:30pm 8.2 5.5 5.8 85 1.1 NE 9 11 5 6 1022.1 1022.0 0.0
19/09:00pm 8.2 5.9 5.7 84 1.2 SSW 7 9 4 5 1022.2 1022.1 0.0
19/08:30pm 8.2 7.2 5.7 84 1.2 CALM 0 9 0 5 1022.3 1022.2 0.0
19/08:00pm 8.0 6.6 5.6 85 1.1 SW 2 6 1 3 1022.3 1022.2 0.0
19/07:30pm 7.9 4.9 5.9 87 0.9 SW 11 13 6 7 1022.4 1022.3 0.0
19/07:00pm 8.0 5.4 6.1 88 0.9 W 9 11 5 6 1022.1 1022.0 0.0
19/06:30pm 8.5 5.9 6.0 84 1.2 WNW 9 13 5 7 1022.0 1021.9 0.0
19/06:00pm 8.9 6.3 6.0 82 1.4 WNW 9 11 5 6 1021.8 1021.6 0.0
19/05:30pm 9.5 7.3 6.2 80 1.6 NW 7 11 4 6 1022.0 1021.9 0.0
19/05:00pm 10.5 7.1 6.1 74 2.1 W 13 19 7 10 1021.9 1021.7 0.0
19/04:30pm 10.7 7.4 6.5 75 2.0 W 13 17 7 9 1021.8 1021.6 0.0
19/04:00pm 10.8 7.1 6.2 73 2.2 W 15 22 8 12 1022.0 1021.9 0.0
19/03:30pm 11.6 8.0 6.9 73 2.3 WNW 15 20 8 11 1022.0 1021.9 0.0
19/03:00pm 11.3 7.6 6.4 72 2.4 W 15 20 8 11 1022.1 1022.0 0.0
19/02:30pm 10.4 6.7 6.2 75 2.0 W 15 22 8 12 1022.4 1022.3 0.0
19/02:00pm 10.4 6.9 5.6 72 2.3 SW 13 19 7 10 1022.5 1022.4 0.0
19/01:30pm 10.6 7.2 6.0 73 2.2 WSW 13 22 7 12 1022.6 1022.5 0.0
19/01:00pm 10.9 7.5 5.9 71 2.4 WSW 13 20 7 11 1022.9 1022.8 0.0
19/12:30pm 9.9 5.7 5.5 74 2.1 WSW 17 22 9 12 1023.4 1023.2 0.0
19/12:00pm 9.9 6.4 5.3 73 2.1 W 13 19 7 10 1023.7 1023.6 0.0
19/11:30am 9.5 5.4 6.2 80 1.6 WSW 17 24 9 13 1023.8 1023.7 0.0
19/11:00am 9.2 5.6 6.6 84 1.2 W 15 20 8 11 1023.8 1023.7 0.0
19/10:30am 9.1 5.1 6.5 84 1.2 W 17 22 9 12 1023.8 1023.7 0.0
19/10:00am 8.7 4.9 6.0 83 1.3 WSW 15 22 8 12 1023.9 1023.8 0.0
19/09:30am 8.7 4.0 6.2 84 1.2 WSW 20 32 11 17 1023.7 1023.6 0.0
19/09:00am 7.8 3.7 6.4 91 0.7 WSW 17 26 9 14 1023.6 1023.5 4.6
19/08:30am 7.5 4.0 7.4 99 0.0 WSW 15 24 8 13 1023.5 1023.3 4.6
19/08:00am 7.2 4.1 7.2 100 0.0 WSW 13 19 7 10 1023.3 1023.1 4.6
19/07:30am 6.3 3.7 6.3 100 0.0 WSW 9 15 5 8 1022.9 1022.8 4.6
19/07:00am 5.7 2.3 5.7 100 0.0 WSW 13 17 7 9 1022.6 1022.5 4.6
19/06:30am 5.5 2.8 5.5 100 0.0 W 9 13 5 7 1022.3 1022.2 4.6
19/06:00am 5.2 1.6 5.2 100 0.0 WSW 13 17 7 9 1021.8 1021.6 4.6
19/05:30am 5.4 1.5 5.4 100 0.0 WSW 15 22 8 12 1021.4 1021.2 4.4
19/05:00am 5.4 1.9 5.4 100 0.0 WSW 13 19 7 10 1021.0 1020.9 4.4
19/04:30am 5.6 1.8 5.6 100 0.0 W 15 20 8 11 1020.7 1020.6 4.4
19/04:00am 5.9 1.4 5.9 100 0.0 WSW 19 26 10 14 1020.3 1020.2 4.4
19/03:30am 5.9 1.4 5.9 100 0.0 WSW 19 24 10 13 1020.1 1019.9 4.4
19/03:00am 6.0 1.3 6.0 100 0.0 WSW 20 28 11 15 1020.1 1019.9 4.4
19/02:30am 5.7 1.1 5.7 100 0.0 WSW 19 28 10 15 1020.1 1019.9 4.4
19/02:00am 5.9 1.2 5.9 100 0.0 WSW 20 30 11 16 1020.1 1019.9 4.4
19/01:30am 6.2 1.1 6.2 100 0.0 W 22 32 12 17 1020.3 1020.2 4.4
19/01:00am 6.3 1.3 6.3 100 0.0 W 22 32 12 17 1020.2 1020.0 4.4
19/12:30am 6.2 0.4 6.2 100 0.0 W 26 41 14 22 1020.2 1020.0 4.4
19/12:00am 6.4 0.3 6.4 100 0.0 W 28 46 15 25 1020.0 1019.8 4.4
 
Date/Time
CST
Temp
°C
App
Temp
°C
Dew
Point
°C
Rel
Hum
%
Delta-T
°C
Wind Press
QNH
hPa
Press
MSL
hPa
Rain since
9am
mm
Dir  Spd
km/h
Gust
km/h
Spd
kts
Gust
kts
18/11:52pm 6.4 0.3 6.4 100 0.0 W 28 46 15 25 1019.8 1019.6 4.4
18/11:30pm 6.5 0.8 6.5 100 0.0 W 26 41 14 22 1019.8 1019.6 4.2
18/11:00pm 6.3 1.3 6.3 100 0.0 W 22 32 12 17 1020.0 1019.8 4.2
18/10:30pm 6.3 0.1 6.3 100 0.0 W 28 39 15 21 1019.9 1019.7 4.2
18/10:00pm 6.5 1.5 6.5 100 0.0 W 22 35 12 19 1019.9 1019.7 4.2
18/09:30pm 6.7 1.0 6.6 99 0.0 W 26 39 14 21 1019.9 1019.7 4.2
18/09:00pm 7.0 1.0 6.9 99 0.0 W 28 43 15 23 1019.8 1019.6 4.2
18/08:38pm 7.2 1.1 6.5 95 0.3 W 28 46 15 25 1019.7 1019.5 4.2
18/08:30pm 7.4 2.0 6.3 93 0.5 W 24 41 13 22 1019.6 1019.4 4.2
18/08:00pm 7.3 1.1 6.2 93 0.5 W 28 46 15 25 1019.5 1019.3 4.2
18/07:57pm 7.4 1.3 6.5 94 0.4 W 28 46 15 25 1019.3 1019.1 4.2
18/07:30pm 7.5 2.3 5.5 87 0.9 W 22 39 12 21 1018.9 1018.8 4.2
18/07:00pm 7.7 1.3 5.3 85 1.1 W 28 46 15 25 1018.3 1018.1 4.2
18/06:37pm 7.6 1.1 4.6 81 1.4 W 28 46 15 25 1017.6 1017.4 4.2
18/06:30pm 7.4 1.2 4.2 80 1.4 W 26 39 14 21 1017.7 1017.5 4.2
18/06:01pm 8.0 0.5 4.4 78 1.6 W 33 52 18 28 1016.5 1016.3 4.2
18/06:00pm 8.0 0.5 4.4 78 1.6 W 33 48 18 26 1016.5 1016.3 4.2
18/05:37pm 8.5 1.1 3.9 73 2.1 WSW 32 50 17 27 1016.6 1016.4 4.2
18/05:30pm 8.6 1.4 4.8 77 1.7 WSW 32 46 17 25 1016.7 1016.5 4.2
18/05:00pm 9.0 1.4 3.8 70 2.3 WSW 33 54 18 29 1016.0 1015.8 4.2
18/04:30pm 9.8 2.5 4.4 69 2.5 WSW 32 54 17 29 1015.4 1015.1 4.2
18/04:00pm 10.1 2.3 4.7 69 2.5 WSW 35 59 19 32 1014.8 1014.6 4.2
18/03:30pm 10.5 4.2 7.4 81 1.5 WSW 30 54 16 29 1014.3 1014.1 4.2
18/03:00pm 9.7 1.3 7.3 85 1.2 WSW 41 63 22 34 1013.2 1012.9 4.2
18/02:30pm 9.0 1.7 8.9 99 0.1 WSW 37 61 20 33 1013.6 1013.3 4.2
18/02:05pm 8.8 3.2 8.8 100 0.0 WSW 28 46 15 25 1013.6 1013.3 4.2
18/02:00pm 8.7 2.7 8.7 100 0.0 WSW 30 44 16 24 1013.5 1013.2 4.2
18/01:34pm 8.8 2.8 8.8 100 0.0 WSW 30 48 16 26 1013.3 1013.0 4.0
18/01:30pm 8.8 2.5 8.8 100 0.0 WSW 32 46 17 25 1013.1 1012.8 4.0
18/01:00pm 9.5 2.8 9.5 100 0.0 W 35 56 19 30 1012.7 1012.5 3.8
18/12:43pm 10.0 3.0 10.0 100 0.0 WNW 37 78 20 42 1012.2 1012.0 3.4
18/12:30pm 10.2 3.3 10.2 100 0.0 W 37 57 20 31 1012.5 1012.3 2.6
18/12:00pm 10.5 2.5 10.5 100 0.0 W 43 69 23 37 1012.6 1012.4 1.4
18/11:32am 10.5 3.7 10.5 100 0.0 WNW 37 56 20 30 1012.8 1012.6 0.6
18/11:30am 10.5 4.0 10.5 100 0.0 WNW 35 48 19 26 1012.8 1012.6 0.6
18/11:02am 11.4 5.5 11.2 99 0.1 WNW 33 52 18 28 1012.9 1012.7 0.0
18/11:00am 11.4 5.1 11.2 99 0.1 WNW 35 52 19 28 1012.8 1012.6 0.0
18/10:31am 12.1 5.1 11.3 95 0.4 WNW 39 57 21 31 1012.5 1012.3 0.0
18/10:30am 12.0 5.0 11.1 94 0.5 WNW 39 54 21 29 1012.4 1012.2 0.0
18/10:00am 12.1 4.3 11.0 93 0.6 WNW 43 61 23 33 1012.6 1012.4 0.0
18/09:35am 12.5 5.6 11.6 94 0.5 WNW 39 57 21 31 1012.3 1012.1 0.0
18/09:30am 12.8 5.6 12.0 95 0.4 WNW 41 54 22 29 1012.3 1012.1 0.0
18/09:07am 11.8 3.9 11.6 99 0.1 WNW 44 63 24 34 1012.0 1011.7 0.0
18/09:00am 12.0 4.2 11.7 98 0.2 WNW 44 59 24 32 1012.2 1012.0 0.0
18/08:48am 11.9 4.8 10.8 93 0.6 WNW 39 57 21 31 1012.2 1012.0 0.0
18/08:30am 12.0 5.5 10.4 90 0.8 WNW 35 50 19 27 1012.2 1012.0 0.0
18/08:00am 11.2 5.1 9.8 91 0.7 WNW 32 48 17 26 1012.2 1012.0 0.0
18/07:30am 10.9 5.4 7.6 80 1.6 NW 26 37 14 20 1012.5 1012.3 0.0
18/07:00am 11.8 4.7 3.3 56 3.9 WNW 30 43 16 23 1012.2 1012.0 0.0
18/06:30am 12.6 5.2 1.9 48 4.8 NW 30 46 16 25 1012.1 1011.8 0.0
18/06:00am 13.6 5.5 1.3 43 5.4 NW 33 48 18 26 1012.2 1012.0 0.0
18/05:30am 14.0 5.9 1.0 41 5.7 NW 33 61 18 33 1012.3 1012.1 0.0
18/05:20am 14.1 6.2 1.1 41 5.7 NW 32 50 17 27 1012.3 1012.1 0.0
18/05:00am 14.1 6.5 0.7 40 5.9 NW 30 44 16 24 1012.1 1011.8 0.0
18/04:35am 14.9 6.3 0.4 37 6.4 NW 35 57 19 31 1012.0 1011.7 0.0
18/04:30am 14.9 6.3 0.4 37 6.4 NW 35 46 19 25 1012.1 1011.8 0.0
18/04:25am 15.2 5.8 0.2 36 6.6 NNW 39 57 21 31 1011.9 1011.6 0.0
18/04:00am 15.6 5.5 0.2 35 6.8 NNW 43 59 23 32 1011.6 1011.3 0.0
18/03:30am 15.7 5.9 -0.1 34 6.9 NNW 41 61 22 33 1011.4 1011.1 0.0
18/03:00am 15.4 5.3 0.4 36 6.6 NNW 43 61 23 33 1011.4 1011.1 0.0
18/02:30am 15.2 5.9 0.6 37 6.5 NNW 39 57 21 31 1011.8 1011.5 0.0
18/02:00am 15.3 6.4 0.7 37 6.5 NNW 37 57 20 31 1012.2 1012.0 0.0
18/01:32am 16.3 6.1 0.0 33 7.2 NNW 43 69 23 37 1012.6 1012.4 0.0
18/01:30am 16.1 6.0 0.3 34 7.0 NNW 43 59 23 32 1012.7 1012.5 0.0
18/01:00am 16.1 6.8 0.3 34 7.0 N 39 57 21 31 1013.2 1012.9 0.0
18/12:46am 15.8 7.2 0.4 35 6.8 N 35 54 19 29 1013.3 1013.0 0.0
18/12:30am 15.7 7.7 0.3 35 6.8 N 32 48 17 26 1013.5 1013.2 0.0
18/12:00am 16.2 7.9 -0.1 33 7.2 N 33 50 18 27 1013.9 1013.7 0.0
 
Date/Time
CST
Temp
°C
App
Temp
°C
Dew
Point
°C
Rel
Hum
%
Delta-T
°C
Wind Press
QNH
hPa
Press
MSL
hPa
Rain since
9am
mm
Dir  Spd
km/h
Gust
km/h
Spd
kts
Gust
kts
17/11:30pm 16.3 7.3 0.0 33 7.2 N 37 56 20 30 1014.5 1014.3 0.0
17/11:10pm 16.7 8.0 -0.5 31 7.5 N 35 54 19 29 1015.1 1014.8 0.0
17/11:00pm 16.7 7.6 -0.5 31 7.5 N 37 54 20 29 1015.4 1015.1 0.0
17/10:31pm 16.8 7.3 -0.4 31 7.5 N 39 57 21 31 1015.8 1015.6 0.0
17/10:30pm 16.6 7.6 -0.1 32 7.4 N 37 54 20 29 1015.8 1015.6 0.0
17/10:00pm 16.9 8.9 0.1 32 7.5 N 32 48 17 26 1016.3 1016.1 0.0
17/09:30pm 16.7 8.7 0.4 33 7.3 N 32 50 17 27 1016.6 1016.4 0.0
17/09:23pm 17.3 9.2 0.0 31 7.7 N 32 50 17 27 1016.6 1016.4 0.0
17/09:00pm 17.2 9.3 0.8 33 7.4 N 32 48 17 26 1016.8 1016.6 0.0
17/08:30pm 17.5 10.1 1.9 35 7.2 N 30 41 16 22 1017.3 1017.1 0.0
17/08:00pm 17.1 11.3 2.3 37 6.9 N 22 30 12 16 1017.4 1017.2 0.0
17/07:30pm 16.7 11.5 2.3 38 6.7 N 19 28 10 15 1017.4 1017.2 0.0
17/07:00pm 16.2 11.0 3.6 43 6.0 NNE 20 26 11 14 1017.3 1017.1 0.0
17/06:30pm 16.1 11.2 4.2 45 5.7 NNE 19 26 10 14 1017.3 1017.1 0.0
17/06:00pm 16.6 11.6 4.6 45 5.8 NNE 20 28 11 15 1017.5 1017.3 0.0
17/05:30pm 17.3 12.8 5.9 47 5.7 NNE 19 28 10 15 1017.9 1017.7 0.0
17/05:00pm 17.5 13.0 6.1 47 5.7 N 19 26 10 14 1018.1 1017.9 0.0
17/04:30pm 18.3 13.2 6.2 45 6.1 N 22 30 12 16 1018.2 1018.0 0.0
17/04:00pm 18.5 13.1 6.4 45 6.2 N 24 33 13 18 1018.3 1018.1 0.0
17/03:30pm 19.0 13.8 7.1 46 6.2 N 24 32 13 17 1018.5 1018.3 0.0
17/03:00pm 18.7 14.1 6.5 45 6.2 N 20 32 11 17 1018.8 1018.7 0.0
17/02:30pm 18.4 12.8 7.2 48 5.8 N 26 37 14 20 1019.3 1019.1 0.0
17/02:00pm 18.1 11.1 6.0 45 6.1 N 32 39 17 21 1019.7 1019.5 0.0
17/01:30pm 18.2 13.8 7.6 50 5.5 N 20 37 11 20 1019.9 1019.7 0.0
17/01:00pm 17.1 11.2 7.5 53 5.0 N 28 39 15 21 1020.6 1020.5 0.0
17/12:30pm 17.4 13.1 7.7 53 5.0 N 20 30 11 16 1021.2 1021.0 0.0
17/12:00pm 16.8 11.3 5.7 48 5.5 N 24 33 13 18 1021.7 1021.5 0.0
17/11:30am 16.1 10.9 5.4 49 5.2 N 22 30 12 16 1022.1 1022.0 0.0
17/11:00am 15.3 9.5 4.4 48 5.2 N 24 33 13 18 1022.6 1022.5 0.0
17/10:30am 15.3 10.0 5.0 50 5.0 N 22 32 12 17 1022.8 1022.7 0.0
17/10:00am 14.8 9.4 4.5 50 4.9 N 22 30 12 16 1023.0 1022.9 0.0

Other Formats:

Comma delimited format used in spreadsheet applications
http://www.bom.gov.au/fwo/IDS60801/IDS60801.94678.axf

JavaScript Object Notation format (JSON) in row-major order
http://www.bom.gov.au/fwo/IDS60801/IDS60801.94678.json